Latest Coastal Weather Observations for Christmas Island

IDW60701

Issued at 10:23 pm WST Thursday 30 March 2017 (issued every 10 minutes, with the page automatically refreshed every 10 minutes)

About coastal observations | Map of coastal stations | Coastal observations for WA | Marine services | Other Formats
Station Details ID: 200790 Name: CHRISTMAS ISLAND AERO Lat: -10.45 Lon: 105.69 Height: 261.0 m
Data from the previous 72 hours. | See also: Recent months at Christmas Island
Date/Time
WST
Temp
°C
Wind Pressure Rain since
9am
mm
Weather Cloud Vis
km
Sea
Height
m
Swell
Dir  Spd
kts
Gust
kts
hPa Trend Height
m
Period
s
Dir
30/10:00pm 25.3 W 4 7 1012.4 - 0.0 - Mostly clear 10 - - - -
30/09:30pm 25.4 W 5 8 1013.7 - 0.0 - - 10 - - - -
30/09:00pm 25.3 W 5 8 1013.5 - 0.0 - - 10 - - - -
30/08:30pm 25.3 W 5 7 1013.0 - 0.0 - - 10 - - - -
30/08:00pm 25.1 W 5 6 1012.7 - 0.0 - - 10 - - - -
30/07:30pm 25.3 W 4 7 1012.3 - 0.0 - - 10 - - - -
30/07:00pm 25.8 WSW 4 6 1010.3 - 0.0 - Mostly clear 10 - - - -
30/06:30pm 26.5 SW 5 8 1011.6 - 0.0 - Partly cloudy 10 - - - -
30/06:00pm 26.9 SW 6 10 1011.6 - 0.0 - - 10 - - - -
30/05:30pm 26.7 SW 8 12 1011.6 - 0.0 - Partly cloudy 10 - - - -
30/05:00pm 27.3 SW 8 13 1011.5 - 0.0 - Partly cloudy 10 - - - -
30/04:30pm 27.8 SSW 8 14 1011.5 - 0.0 - Partly cloudy 10 - - - -
30/04:00pm 28.5 SW 7 13 1010.1 - 0.0 - - 10 - - - -
30/03:30pm 28.7 WSW 7 12 1011.8 - 0.0 - - 10 - - - -
30/03:00pm 28.8 SW 11 14 1012.2 - 0.0 - - 10 - - - -
30/02:30pm 29.0 WSW 7 13 1012.5 - 0.0 - - 10 - - - -
30/02:00pm 28.7 W 8 15 1013.0 - 0.0 - Partly cloudy 10 - - - -
30/01:30pm 28.5 WSW 8 12 1013.5 - 0.0 - Partly cloudy 10 - - - -
30/01:00pm 28.1 SW 7 16 1012.2 - 0.0 - Mostly cloudy 10 - - - -
30/12:30pm 28.2 SW 6 11 1014.1 - 0.0 - Partly cloudy 10 - - - -
30/12:00pm 27.9 SW 6 12 1014.2 - 0.0 - Partly cloudy 10 - - - -
30/11:30am 27.7 SW 7 14 1014.4 - 0.0 - Partly cloudy 10 - - - -
30/11:00am 27.4 SW 8 15 1014.4 - 0.0 - Partly cloudy 10 - - - -
30/10:30am 27.2 SSW 9 15 1014.5 - 0.0 - Partly cloudy 10 - - - -
30/10:00am 27.1 SW 7 10 1012.9 - 2.8 - Mostly clear 10 - - - -
30/09:30am 26.4 SSW 5 9 1014.5 - 2.8 - - 10 - - - -
30/09:00am 26.0 SSW 6 10 1014.3 - 2.8 - - 10 - - - -
30/08:30am 25.6 SSW 4 7 1014.2 - 2.8 - - 10 - - - -
30/08:00am 24.8 SW 5 8 1013.9 - 2.8 - - 10 - - - -
30/07:30am 24.2 SW 4 7 1013.6 - 2.8 - - 10 - - - -
30/07:00am 24.1 WSW 4 6 1012.1 - 2.6 - Cloudy 10 - - - -
30/06:30am 24.1 WSW 5 7 1013.6 - 2.6 - Partly cloudy 10 - - - -
30/06:00am 24.3 W 3 5 1013.6 - 2.6 - Partly cloudy 10 - - - -
30/05:51am 24.3 W 3 6 1013.6 - 2.6 - Partly cloudy 10 - - - -
30/05:31am 24.4 WSW 3 5 1013.6 - 1.4 - Partly cloudy 5 - - - -
30/05:30am 24.4 WSW 3 5 1013.6 - 0.8 - Partly cloudy 9 - - - -
30/05:00am 24.4 WSW 3 5 1013.4 - 0.2 - Partly cloudy 10 - - - -
30/04:30am 24.4 W 5 7 1013.3 - 0.0 - Partly cloudy 10 - - - -
30/04:00am 24.3 W 5 8 1011.7 - 0.0 - - 10 - - - -
30/03:30am 24.2 WSW 4 7 1013.4 - 0.0 - - 10 - - - -
30/03:00am 24.1 W 4 6 1013.7 - 0.0 - - 10 - - - -
30/02:30am 24.2 W 5 7 1013.7 - 0.0 - - 10 - - - -
30/02:00am 24.2 WSW 5 8 1013.9 - 0.0 - - 10 - - - -
30/01:30am 24.1 W 5 6 1014.0 - 0.0 - - 10 - - - -
30/01:00am 24.2 W 4 6 1012.4 - 0.0 - - 10 - - - -
30/12:30am 24.1 W 4 6 1014.3 - 0.0 - - 10 - - - -
30/12:00am 24.2 WNW 4 6 1014.5 - 0.0 - - 10 - - - -
 
Date/Time
WST
Temp
°C
Wind Pressure Rain since
9am
mm
Weather Cloud Vis
km
Sea
Height
m
Swell
Dir  Spd
kts
Gust
kts
hPa Trend Height
m
Period
s
Dir
29/11:30pm 24.1 WNW 5 7 1014.5 - 0.0 - - 10 - - - -
29/11:00pm 24.2 WSW 4 5 1014.5 - 0.0 - - 10 - - - -
29/10:30pm 24.2 WSW 4 5 1014.4 - 0.0 - - 10 - - - -
29/10:00pm 24.3 WSW 3 5 1012.6 - 0.0 - - 10 - - - -
29/09:30pm 24.5 WSW 4 7 1013.8 - 0.0 - - 10 - - - -
29/09:00pm 24.6 WSW 5 7 1013.4 - 0.0 - - 10 - - - -
29/08:30pm 24.7 W 4 6 1013.2 - 0.0 - - 10 - - - -
29/08:00pm 24.8 W 5 8 1012.9 - 0.0 - - 10 - - - -
29/07:30pm 25.1 SW 3 5 1012.7 - 0.0 - - 10 - - - -
29/07:00pm 25.7 SW 4 7 1010.8 - 0.0 - - 10 - - - -
29/06:30pm 26.7 SW 5 8 1012.3 - 0.0 - - 10 - - - -
29/06:00pm 27.5 SW 4 6 1011.9 - 0.0 - - 10 - - - -
29/05:30pm 27.5 SW 7 12 1011.8 - 0.0 - - 10 - - - -
29/05:00pm 28.0 SW 8 13 1011.9 - 0.0 - - 10 - - - -
29/04:30pm 28.0 SW 7 11 1011.9 - 0.0 - - 10 - - - -
29/04:00pm 28.1 SSW 8 12 1010.4 - 0.0 - - 10 - - - -
29/03:30pm 28.9 WSW 8 12 1012.5 - 0.0 - Partly cloudy 10 - - - -
29/03:00pm 28.3 W 5 8 1012.9 - 0.0 - Partly cloudy 10 - - - -
29/02:30pm 28.8 WSW 6 8 1013.1 - 0.0 - Partly cloudy 10 - - - -
29/02:00pm 28.8 SW 7 12 1013.5 - 0.0 - - 10 - - - -
29/01:30pm 29.1 SW 5 10 1013.8 - 0.0 - - 10 - - - -
29/01:00pm 29.2 SSW 5 9 1012.6 - 0.0 - - 10 - - - -
29/12:30pm 29.3 SSW 5 10 1014.6 - 0.0 - - 10 - - - -
29/12:00pm 28.6 SW 6 10 1014.9 - 0.0 - - 10 - - - -
29/11:30am 28.5 SSW 5 10 1015.1 - 0.0 - - 10 - - - -
29/11:00am 28.2 SW 5 10 1015.2 - 0.0 - - 10 - - - -
29/10:30am 27.4 SW 7 11 1015.2 - 0.0 - - 10 - - - -
29/10:00am 27.1 SW 6 9 1013.5 - 0.2 - Mostly clear 10 - - - -
29/09:30am 26.5 SSW 6 10 1015.1 - 0.2 - Partly cloudy 10 - - - -
29/09:00am 26.0 SSW 5 9 1014.9 - 0.2 - - 10 - - - -
29/08:30am 25.6 SSW 5 7 1014.6 - 0.2 - - 10 - - - -
29/08:00am 24.7 SSW 4 7 1014.4 - 0.2 - - 10 - - - -
29/07:30am 23.9 SW 4 6 1014.2 - 0.2 - - 10 - - - -
29/07:00am 23.6 SW 3 5 1012.5 - 0.2 - - 10 - - - -
29/06:30am 23.7 SW 3 5 1013.9 - 0.2 - - 10 - - - -
29/06:00am 23.9 SW 2 5 1013.5 - 0.0 - Partly cloudy 10 - - - -
29/05:30am 23.6 SW 3 5 1013.3 - 0.0 - - 10 - - - -
29/05:00am 23.8 SW 4 6 1013.2 - 0.0 - - 10 - - - -
29/04:30am 23.7 SW 3 5 1013.3 - 0.0 - - 10 - - - -
29/04:00am 23.8 SW 3 4 1011.4 - 0.0 - - 10 - - - -
29/03:30am 23.6 SW 3 4 1013.2 - 0.0 - - 10 - - - -
29/03:00am 23.7 SW 3 6 1013.6 - 0.0 - - 10 - - - -
29/02:30am 23.8 SW 4 6 1013.9 - 0.0 - - 10 - - - -
29/02:00am 23.7 SW 4 6 1014.0 - 0.0 - - 10 - - - -
29/01:30am 23.8 SW 3 5 1014.2 - 0.0 - - 10 - - - -
29/01:00am 23.8 SW 3 5 1013.0 - 0.0 - - 10 - - - -
29/12:30am 23.9 SW 2 3 1014.8 - 0.0 - - 10 - - - -
29/12:00am 24.0 SW 1 3 1015.2 - 0.0 - Partly cloudy 10 - - - -
 
Date/Time
WST
Temp
°C
Wind Pressure Rain since
9am
mm
Weather Cloud Vis
km
Sea
Height
m
Swell
Dir  Spd
kts
Gust
kts
hPa Trend Height
m
Period
s
Dir
28/11:30pm 23.9 SW 1 4 1015.1 - 0.0 - - 10 - - - -
28/11:00pm 24.1 SW 2 5 1014.8 - 0.0 - - 10 - - - -
28/10:30pm 24.2 SW 3 5 1014.5 - 0.0 - - 10 - - - -
28/10:00pm 24.2 SW 4 7 1012.5 - 0.0 - - 10 - - - -
28/09:30pm 24.2 SW 3 5 1013.9 - 0.0 - - 10 - - - -
28/09:00pm 24.3 SW 2 4 1013.6 - 0.0 - - 10 - - - -
28/08:30pm 24.5 SW 3 4 1013.3 - 0.0 - - 10 - - - -
28/08:00pm 24.6 SSW 3 5 1012.8 - 0.0 - - 10 - - - -
28/07:30pm 24.9 SW 3 5 1012.4 - 0.0 - - 10 - - - -
28/07:00pm 25.6 SW 4 5 1010.6 - 0.0 - - 10 - - - -
28/06:30pm 26.3 SW 5 8 1012.4 - 0.0 - Partly cloudy 10 - - - -
28/06:00pm 27.5 W 5 9 1011.9 - 0.0 - Partly cloudy 10 - - - -
28/05:30pm 27.4 SSW 4 8 1011.8 - 0.0 - Partly cloudy 10 - - - -
28/05:00pm 27.9 S 5 8 1011.8 - 0.0 - Partly cloudy 10 - - - -
28/04:30pm 27.5 WSW 5 8 1011.9 - 0.0 - Partly cloudy 10 - - - -
28/04:00pm 28.0 WNW 4 6 1010.7 - 0.0 - Cloudy 10 - - - -
28/03:30pm 28.5 WSW 4 9 1012.5 - 0.0 - Partly cloudy 10 - - - -
28/03:19pm 27.7 NE 6 20 1012.3 - 0.0 - Partly cloudy 10 - - - -
28/03:01pm 27.6 NE 4 6 1012.6 - 0.0 - Partly cloudy 10 - - - -
28/03:00pm 27.6 ENE 4 6 1012.6 - 0.0 - Partly cloudy 10 - - - -
28/02:30pm 27.9 NE 6 7 1013.1 - 0.0 - Cloudy 10 - - - -
28/02:00pm 27.3 NE 6 8 1013.4 - 0.0 - Partly cloudy 10 - - - -
28/01:30pm 27.2 NE 7 9 1013.8 - 0.0 - Partly cloudy 10 - - - -
28/01:00pm 28.0 SW 5 7 1012.5 - 0.0 - Mostly cloudy 10 - - - -
28/12:35pm 28.8 WNW 5 12 1014.4 - 0.0 - Partly cloudy 10 - - - -
28/12:30pm 28.1 NNW 5 12 1014.4 - 0.0 - Partly cloudy 10 - - - -
28/12:00pm 27.2 NNE 5 7 1014.7 - 0.0 - Partly cloudy 10 - - - -
28/11:48am 27.1 NNE 3 6 1014.7 - 0.0 - Partly cloudy 10 - - - -
28/11:30am 27.8 SSE 3 5 1014.9 - 0.0 - Partly cloudy 10 - - - -
28/11:00am 27.4 WSW 5 7 1014.9 - 0.0 - Partly cloudy 10 - - - -
28/10:30am 27.0 WSW 3 6 1014.8 - 0.0 - Partly cloudy 10 - - - -
28/10:00am 27.1 SW 5 12 1013.1 - 13.8 - Cloudy 10 - - - -
28/09:30am 26.7 SSW 4 6 1014.3 - 13.8 - Partly cloudy 10 - - - -
28/09:00am 26.2 W 3 5 1014.3 - 13.8 - - 10 - - - -
28/08:30am 25.6 W 4 5 1014.1 - 13.8 - - 10 - - - -
28/08:00am 24.4 W 3 5 1013.8 - 13.8 - - 10 - - - -
28/07:30am 23.2 W 4 5 1013.4 - 13.8 - - 10 - - - -
28/07:00am 23.0 W 4 5 1011.5 - 13.8 - - 10 - - - -
28/06:30am 23.4 W 4 5 1013.0 - 13.8 - - 10 - - - -
28/06:00am 23.3 W 4 6 1012.9 - 13.8 - - 10 - - - -
28/05:30am 23.2 W 4 5 1013.0 - 13.8 - - 10 - - - -
28/05:00am 23.3 W 4 6 1012.9 - 13.8 - - 10 - - - -
28/04:30am 23.1 W 4 6 1013.0 - 13.8 - Partly cloudy 10 - - - -
28/04:00am 23.2 W 4 5 1011.6 - 13.8 - Partly cloudy 10 - - - -
28/03:30am 23.5 W 4 6 1013.3 - 13.8 - Partly cloudy 10 - - - -
28/03:00am 23.6 W 5 7 1013.6 - 13.8 - Partly cloudy 10 - - - -
28/02:30am 23.8 W 3 5 1013.8 - 13.8 - Cloudy 10 - - - -
28/02:00am 23.8 W 3 5 1014.2 - 13.8 - Partly cloudy 10 - - - -
28/01:30am 23.9 W 2 3 1014.4 - 13.8 - Partly cloudy 10 - - - -
28/01:00am 23.7 W 3 5 1012.9 - 13.8 - Mostly cloudy 10 - - - -
28/12:30am 23.7 W 5 6 1014.5 - 13.8 - Partly cloudy 10 - - - -
28/12:00am 23.7 W 4 6 1014.5 - 13.8 - Cloudy 10 - - - -
 
Date/Time
WST
Temp
°C
Wind Pressure Rain since
9am
mm
Weather Cloud Vis
km
Sea
Height
m
Swell
Dir  Spd
kts
Gust
kts
hPa Trend Height
m
Period
s
Dir
27/11:30pm 23.5 W 3 5 1014.7 - 13.8 - Partly cloudy 10 - - - -

Other Formats:

Comma delimited format used in spreadsheet applications
http://www.bom.gov.au/fwo/IDW60701/IDW60701.96995.axf

JavaScript Object Notation format (JSON) in row-major order
http://www.bom.gov.au/fwo/IDW60701/IDW60701.96995.json